Time;durP1;ratioP1;P1;durP2;ratioP2;P2;SDS_P1;SDS_P2;PMS_P1;PMS_P2;Temp;Humidity;BMP_temperature;BMP_pressure;BME280_temperature;BME280_humidity;BME280_pressure;Samples;Min_cycle;Max_cycle;Signal;HPM_P1;HPM_P2
2021/09/20 00:01:28;;;;;;;;;;;;;;;;;;5070834;28;19917;-79
2021/09/20 00:03:53;;;;;;;;;;;;;;;;;;5070514;28;19916;-79
2021/09/20 00:06:18;;;;;;;;;;;;;;;;;;5054216;28;19918;-79
2021/09/20 00:08:44;;;;;;;;;;;;;;;;;;5053532;28;19919;-80
2021/09/20 00:11:09;;;;;;;;;;;;;;;;;;5071096;28;19920;-79
2021/09/20 00:13:35;;;;;;;;;;;;;;;;;;5053637;28;19912;-79
2021/09/20 00:16:00;;;;;;;;;;;;;;;;;;5054189;28;20009;-79
2021/09/20 00:18:25;;;;;;;;;;;;;;;;;;5079520;28;19912;-78
2021/09/20 00:20:51;;;;;;;;;;;;;;;;;;5074250;28;19912;-80
2021/09/20 00:23:16;;;;;;;;;;;;;;;;;;5074096;28;20007;-80
2021/09/20 00:25:41;;;;;;;;;;;;;;;;;;5070436;28;19928;-79
2021/09/20 00:28:07;;;;;;;;;;;;;;;;;;5053589;28;19923;-80
2021/09/20 00:30:32;;;;;;;;;;;;;;;;;;5054240;28;19917;-79
2021/09/20 00:32:57;;;;;;;;;;;;;;;;;;5070936;28;20331;-80
2021/09/20 00:35:23;;;;;;;;;;;;;;;;;;5070588;28;20405;-80
2021/09/20 00:37:48;;;;;;;;;;;;;;;;;;5070555;28;19919;-79
2021/09/20 00:40:13;;;;;;;;;;;;;;;;;;5070829;28;19912;-79
2021/09/20 00:42:39;;;;;;;;;;;;;;;;;;5053580;28;19948;-79
2021/09/20 00:45:05;;;;;;;;;;;;;;;;;;5070630;28;19939;-80
2021/09/20 00:47:30;;;;;;;;;;;;;;;;;;5053693;28;19963;-79
2021/09/20 00:49:56;;;;;;;;;;;;;;;;;;5054188;28;19947;-79
2021/09/20 00:52:21;;;;;;;;;;;;;;;;;;5070285;28;19916;-80
2021/09/20 00:54:46;;;;;;;;;;;;;;;;;;5078789;28;19913;-79
2021/09/20 00:57:12;;;;;;;;;;;;;;;;;;5069915;28;19938;-79
2021/09/20 00:59:37;;;;;;;;;;;;;;;;;;5070613;28;19916;-79
2021/09/20 01:02:02;;;;;;;;;;;;;;;;;;5053718;28;19912;-80
2021/09/20 01:04:28;;;;;;;;;;;;;;;;;;5070955;28;20014;-80
2021/09/20 01:06:53;;;;;;;;;;;;;;;;;;5053256;28;19912;-79
2021/09/20 01:09:18;;;;;;;;;;;;;;;;;;5053196;28;19912;-79
2021/09/20 01:11:44;;;;;;;;;;;;;;;;;;5070251;28;19916;-79
2021/09/20 01:14:09;;;;;;;;;;;;;;;;;;5053467;28;19920;-80
2021/09/20 01:16:35;;;;;;;;;;;;;;;;;;5053341;28;20286;-79
2021/09/20 01:19:00;;;;;;;;;;;;;;;;;;5053875;28;19962;-79
2021/09/20 01:21:25;;;;;;;;;;;;;;;;;;5072810;28;20366;-79
2021/09/20 01:23:50;;;;;;;;;;;;;;;;;;5040451;28;19927;-80
2021/09/20 01:26:16;;;;;;;;;;;;;;;;;;5085634;28;19916;-79
2021/09/20 01:28:41;;;;;;;;;;;;;;;;;;5077109;28;19924;-79
2021/09/20 01:31:06;;;;;;;;;;;;;;;;;;5093913;28;19919;-79
2021/09/20 01:33:32;;;;;;;;;;;;;;;;;;5076924;28;19920;-79
2021/09/20 01:35:57;;;;;;;;;;;;;;;;;;5059942;28;19916;-79
2021/09/20 01:38:23;;;;;;;;;;;;;;;;;;5076665;28;19959;-79
2021/09/20 01:40:48;;;;;;;;;;;;;;;;;;5076803;28;19927;-79
2021/09/20 01:43:15;;;;;;;;;;;;;;;;;;5093782;28;20258;-79
2021/09/20 01:45:40;;;;;;;;;;;;;;;;;;5093521;28;19919;-80
2021/09/20 01:48:05;;;;;;;;;;;;;;;;;;5093797;28;20274;-80
2021/09/20 01:50:31;;;;;;;;;;;;;;;;;;5076849;28;19912;-80
2021/09/20 01:52:56;;;;;;;;;;;;;;;;;;5075905;28;19920;-79
2021/09/20 01:55:21;;;;;;;;;;;;;;;;;;5079015;28;19920;-79
2021/09/20 01:57:47;;;;;;;;;;;;;;;;;;5055960;28;20374;-79
2021/09/20 02:00:13;;;;;;;;;;;;;;;;;;5056589;28;19923;-79
2021/09/20 02:02:38;;;;;;;;;;;;;;;;;;5073573;28;19927;-79
2021/09/20 02:05:04;;;;;;;;;;;;;;;;;;5073042;28;20597;-79
2021/09/20 02:07:29;;;;;;;;;;;;;;;;;;5055412;28;19932;-79
2021/09/20 02:09:55;;;;;;;;;;;;;;;;;;5055945;28;19966;-79
2021/09/20 02:12:20;;;;;;;;;;;;;;;;;;5072990;28;19916;-79
2021/09/20 02:14:45;;;;;;;;;;;;;;;;;;5056604;28;19965;-79
2021/09/20 02:17:11;;;;;;;;;;;;;;;;;;5056197;28;19912;-79
2021/09/20 02:19:39;;;;;;;;;;;;;;;;;;5056089;28;19919;-79
2021/09/20 02:22:04;;;;;;;;;;;;;;;;;;5056408;28;20458;-80
2021/09/20 02:24:30;;;;;;;;;;;;;;;;;;5055585;28;20006;-79
2021/09/20 02:26:55;;;;;;;;;;;;;;;;;;5070437;28;19973;-79
2021/09/20 02:29:21;;;;;;;;;;;;;;;;;;5072610;28;19917;-80
2021/09/20 02:31:46;;;;;;;;;;;;;;;;;;5072795;28;20263;-79
2021/09/20 02:34:11;;;;;;;;;;;;;;;;;;5072707;28;19917;-80
2021/09/20 02:36:37;;;;;;;;;;;;;;;;;;5071594;28;19920;-79
2021/09/20 02:39:03;;;;;;;;;;;;;;;;;;5089103;28;19916;-79
2021/09/20 02:41:28;;;;;;;;;;;;;;;;;;5072415;28;19916;-79
2021/09/20 02:43:53;;;;;;;;;;;;;;;;;;5072388;28;19958;-79
2021/09/20 02:46:19;;;;;;;;;;;;;;;;;;5065796;28;19970;-80
2021/09/20 02:48:44;;;;;;;;;;;;;;;;;;5072118;28;19913;-79
2021/09/20 02:51:09;;;;;;;;;;;;;;;;;;5055727;28;19913;-79
2021/09/20 02:53:35;;;;;;;;;;;;;;;;;;5071695;28;19962;-79
2021/09/20 02:56:00;;;;;;;;;;;;;;;;;;5073855;28;19916;-79
2021/09/20 02:58:25;;;;;;;;;;;;;;;;;;5058465;28;19916;-79
2021/09/20 03:00:51;;;;;;;;;;;;;;;;;;5092290;28;19919;-79
2021/09/20 03:03:16;;;;;;;;;;;;;;;;;;5058652;28;19919;-79
2021/09/20 03:05:41;;;;;;;;;;;;;;;;;;5074732;28;19923;-80
2021/09/20 03:08:07;;;;;;;;;;;;;;;;;;5074553;28;19912;-80
2021/09/20 03:10:32;;;;;;;;;;;;;;;;;;5075398;28;20785;-80
2021/09/20 03:12:58;;;;;;;;;;;;;;;;;;5092071;28;20285;-79
2021/09/20 03:15:23;;;;;;;;;;;;;;;;;;5092133;28;19966;-79
2021/09/20 03:17:51;;;;;;;;;;;;;;;;;;5087768;28;20009;-79
2021/09/20 03:20:17;;;;;;;;;;;;;;;;;;5038726;28;19913;-79
2021/09/20 03:22:42;;;;;;;;;;;;;;;;;;5054534;28;20370;-80
2021/09/20 03:25:08;;;;;;;;;;;;;;;;;;5040388;28;19947;-79
2021/09/20 03:27:33;;;;;;;;;;;;;;;;;;5075096;28;19924;-79
2021/09/20 03:29:58;;;;;;;;;;;;;;;;;;5091653;28;19916;-80
2021/09/20 03:32:24;;;;;;;;;;;;;;;;;;5075201;28;19927;-79
2021/09/20 03:34:49;;;;;;;;;;;;;;;;;;5074835;28;20267;-79
2021/09/20 03:37:14;;;;;;;;;;;;;;;;;;5073488;28;19919;-79
2021/09/20 03:39:40;;;;;;;;;;;;;;;;;;5071709;28;20385;-79
2021/09/20 03:42:05;;;;;;;;;;;;;;;;;;5054694;28;19915;-79
2021/09/20 03:44:31;;;;;;;;;;;;;;;;;;5053900;28;20316;-79
2021/09/20 03:46:56;;;;;;;;;;;;;;;;;;5038062;28;19909;-79
2021/09/20 03:49:21;;;;;;;;;;;;;;;;;;5054504;28;19935;-79
2021/09/20 03:51:47;;;;;;;;;;;;;;;;;;5071215;28;20358;-79
2021/09/20 03:54:12;;;;;;;;;;;;;;;;;;5037733;28;20384;-79
2021/09/20 03:56:37;;;;;;;;;;;;;;;;;;5070940;28;19928;-79
2021/09/20 03:59:03;;;;;;;;;;;;;;;;;;5070955;28;19970;-79
2021/09/20 04:01:28;;;;;;;;;;;;;;;;;;5054391;28;19971;-79
2021/09/20 04:03:53;;;;;;;;;;;;;;;;;;5071091;28;19958;-79
2021/09/20 04:06:19;;;;;;;;;;;;;;;;;;5037147;28;19920;-78
2021/09/20 04:08:44;;;;;;;;;;;;;;;;;;5054089;28;20499;-78
2021/09/20 04:11:09;;;;;;;;;;;;;;;;;;5037330;28;19919;-79
2021/09/20 04:13:35;;;;;;;;;;;;;;;;;;5070987;28;19919;-79
2021/09/20 04:16:00;;;;;;;;;;;;;;;;;;5071285;28;19912;-78
2021/09/20 04:18:26;;;;;;;;;;;;;;;;;;5062645;28;19912;-79
2021/09/20 04:20:51;;;;;;;;;;;;;;;;;;5057349;28;19916;-79
2021/09/20 04:23:18;;;;;;;;;;;;;;;;;;5074110;28;20015;-79
2021/09/20 04:25:43;;;;;;;;;;;;;;;;;;5073978;28;19958;-80
2021/09/20 04:28:08;;;;;;;;;;;;;;;;;;5073903;28;19916;-79
2021/09/20 04:30:33;;;;;;;;;;;;;;;;;;5074237;28;20006;-79
2021/09/20 04:32:59;;;;;;;;;;;;;;;;;;5057271;28;19913;-80
2021/09/20 04:35:24;;;;;;;;;;;;;;;;;;5073750;28;19916;-80
2021/09/20 04:37:49;;;;;;;;;;;;;;;;;;5070200;28;19919;-79
2021/09/20 04:40:15;;;;;;;;;;;;;;;;;;5070644;28;19914;-79
2021/09/20 04:42:40;;;;;;;;;;;;;;;;;;5054039;28;20378;-80
2021/09/20 04:45:06;;;;;;;;;;;;;;;;;;5053911;28;19999;-80
2021/09/20 04:47:31;;;;;;;;;;;;;;;;;;5053815;28;19922;-79
2021/09/20 04:49:56;;;;;;;;;;;;;;;;;;5053742;28;19917;-79
2021/09/20 04:52:22;;;;;;;;;;;;;;;;;;5070800;28;19917;-79
2021/09/20 04:54:47;;;;;;;;;;;;;;;;;;5079340;28;20745;-79
2021/09/20 04:57:12;;;;;;;;;;;;;;;;;;5094322;28;20353;-80
2021/09/20 04:59:37;;;;;;;;;;;;;;;;;;5094492;28;19927;-79
2021/09/20 05:02:03;;;;;;;;;;;;;;;;;;5077795;28;19912;-79
2021/09/20 05:04:28;;;;;;;;;;;;;;;;;;5077749;28;19930;-80
2021/09/20 05:06:54;;;;;;;;;;;;;;;;;;5060095;28;19907;-79
2021/09/20 05:09:19;;;;;;;;;;;;;;;;;;5077149;28;19987;-79
2021/09/20 05:11:44;;;;;;;;;;;;;;;;;;5077510;28;20006;-79
2021/09/20 05:14:09;;;;;;;;;;;;;;;;;;5077453;28;19919;-82
2021/09/20 05:16:35;;;;;;;;;;;;;;;;;;5076964;28;19957;-78
2021/09/20 05:19:00;;;;;;;;;;;;;;;;;;5057106;28;19919;-78
2021/09/20 05:21:25;;;;;;;;;;;;;;;;;;5073476;28;19961;-79
2021/09/20 05:23:51;;;;;;;;;;;;;;;;;;5073086;28;19916;-79
2021/09/20 05:26:17;;;;;;;;;;;;;;;;;;5063275;28;19924;-78
2021/09/20 05:28:42;;;;;;;;;;;;;;;;;;5054546;28;20007;-78
2021/09/20 05:31:07;;;;;;;;;;;;;;;;;;5039303;28;19920;-78
2021/09/20 05:33:34;;;;;;;;;;;;;;;;;;5056840;28;19975;-78
2021/09/20 05:36:03;;;;;;;;;;;;;;;;;;5056951;28;19920;-78
2021/09/20 05:38:28;;;;;;;;;;;;;;;;;;5073053;28;19923;-78
2021/09/20 05:40:53;;;;;;;;;;;;;;;;;;5056992;28;19913;-78
2021/09/20 05:43:19;;;;;;;;;;;;;;;;;;5040218;28;19912;-78
2021/09/20 05:45:44;;;;;;;;;;;;;;;;;;5073403;28;19943;-78
2021/09/20 05:48:10;;;;;;;;;;;;;;;;;;5073565;28;20003;-78
2021/09/20 05:50:35;;;;;;;;;;;;;;;;;;5056584;28;19919;-78
2021/09/20 05:53:00;;;;;;;;;;;;;;;;;;5056552;28;19916;-79
2021/09/20 05:55:26;;;;;;;;;;;;;;;;;;5086953;28;20442;-78
2021/09/20 05:57:51;;;;;;;;;;;;;;;;;;5076579;28;20011;-78
2021/09/20 06:00:16;;;;;;;;;;;;;;;;;;5093540;28;19912;-78
2021/09/20 06:02:42;;;;;;;;;;;;;;;;;;5076880;28;20373;-78
2021/09/20 06:05:07;;;;;;;;;;;;;;;;;;5076520;28;19912;-78
2021/09/20 06:07:33;;;;;;;;;;;;;;;;;;5075391;28;19916;-78
2021/09/20 06:09:58;;;;;;;;;;;;;;;;;;5076240;28;19916;-78
2021/09/20 06:12:23;;;;;;;;;;;;;;;;;;5076390;28;20040;-78
2021/09/20 06:14:49;;;;;;;;;;;;;;;;;;5075988;28;20366;-78
2021/09/20 06:17:14;;;;;;;;;;;;;;;;;;5076102;28;19969;-78
2021/09/20 06:19:39;;;;;;;;;;;;;;;;;;5072732;28;19919;-78
2021/09/20 06:22:05;;;;;;;;;;;;;;;;;;5055540;28;20007;-78
2021/09/20 06:24:30;;;;;;;;;;;;;;;;;;5056103;28;19919;-80
2021/09/20 06:26:55;;;;;;;;;;;;;;;;;;5073276;28;19912;-80
2021/09/20 06:29:21;;;;;;;;;;;;;;;;;;5092547;28;19920;-80
2021/09/20 06:31:46;;;;;;;;;;;;;;;;;;5075855;28;19998;-81
2021/09/20 06:34:12;;;;;;;;;;;;;;;;;;5076039;28;19922;-80
2021/09/20 06:36:39;;;;;;;;;;;;;;;;;;5057600;28;20460;-79
2021/09/20 06:39:05;;;;;;;;;;;;;;;;;;5067828;28;19920;-80
2021/09/20 06:41:30;;;;;;;;;;;;;;;;;;5080715;28;19923;-79
2021/09/20 06:43:56;;;;;;;;;;;;;;;;;;5075202;28;19911;-79
2021/09/20 06:46:21;;;;;;;;;;;;;;;;;;5061485;28;20386;-79
2021/09/20 06:48:46;;;;;;;;;;;;;;;;;;5071832;28;19920;-79
2021/09/20 06:51:11;;;;;;;;;;;;;;;;;;5072044;28;19923;-79
2021/09/20 06:53:37;;;;;;;;;;;;;;;;;;5055288;28;19948;-79
2021/09/20 06:56:02;;;;;;;;;;;;;;;;;;5090788;28;19916;-80
2021/09/20 06:58:27;;;;;;;;;;;;;;;;;;5061430;28;19924;-79
2021/09/20 07:00:53;;;;;;;;;;;;;;;;;;5071965;28;20011;-79
2021/09/20 07:03:18;;;;;;;;;;;;;;;;;;5071985;28;19938;-80
2021/09/20 07:05:44;;;;;;;;;;;;;;;;;;5072704;28;20277;-79
2021/09/20 07:08:09;;;;;;;;;;;;;;;;;;5071625;28;20263;-79
2021/09/20 07:10:34;;;;;;;;;;;;;;;;;;5038537;28;19919;-79
2021/09/20 07:13:00;;;;;;;;;;;;;;;;;;5038097;28;19916;-79
2021/09/20 07:15:25;;;;;;;;;;;;;;;;;;5054941;28;19912;-79
2021/09/20 07:17:50;;;;;;;;;;;;;;;;;;5074651;28;19912;-79
2021/09/20 07:20:16;;;;;;;;;;;;;;;;;;5075074;28;19912;-79
2021/09/20 07:22:43;;;;;;;;;;;;;;;;;;5074493;28;19919;-79
2021/09/20 07:25:09;;;;;;;;;;;;;;;;;;5074874;28;19935;-79
2021/09/20 07:27:34;;;;;;;;;;;;;;;;;;5091394;28;19916;-79
2021/09/20 07:29:59;;;;;;;;;;;;;;;;;;5057989;28;20373;-79
2021/09/20 07:32:25;;;;;;;;;;;;;;;;;;5074934;28;19926;-79
2021/09/20 07:34:50;;;;;;;;;;;;;;;;;;5054161;28;19913;-79
2021/09/20 07:37:16;;;;;;;;;;;;;;;;;;5053823;28;19913;-79
2021/09/20 07:39:41;;;;;;;;;;;;;;;;;;5071534;28;19913;-79
2021/09/20 07:42:09;;;;;;;;;;;;;;;;;;5054309;28;19908;-79
2021/09/20 07:44:34;;;;;;;;;;;;;;;;;;5054771;28;19916;-79
2021/09/20 07:47:00;;;;;;;;;;;;;;;;;;5058157;28;20263;-78
2021/09/20 07:49:25;;;;;;;;;;;;;;;;;;5087147;28;20069;-79
2021/09/20 07:51:50;;;;;;;;;;;;;;;;;;5071565;28;19909;-79
2021/09/20 07:54:15;;;;;;;;;;;;;;;;;;5075447;28;20293;-78
2021/09/20 07:56:41;;;;;;;;;;;;;;;;;;5073872;28;19916;-79
2021/09/20 07:59:06;;;;;;;;;;;;;;;;;;5074011;28;19916;-79
2021/09/20 08:01:32;;;;;;;;;;;;;;;;;;5074277;28;19927;-76
2021/09/20 08:03:57;;;;;;;;;;;;;;;;;;5072131;28;19947;-76
2021/09/20 08:06:23;;;;;;;;;;;;;;;;;;5078884;28;19923;-75
2021/09/20 08:08:49;;;;;;;;;;;;;;;;;;5074041;28;19955;-75
2021/09/20 08:11:14;;;;;;;;;;;;;;;;;;5090891;28;20412;-76
2021/09/20 08:13:39;;;;;;;;;;;;;;;;;;5074390;28;20439;-75
2021/09/20 08:16:04;;;;;;;;;;;;;;;;;;5074066;28;19912;-75
2021/09/20 08:18:30;;;;;;;;;;;;;;;;;;5057447;28;19998;-76
2021/09/20 08:20:55;;;;;;;;;;;;;;;;;;5073900;28;20028;-76
2021/09/20 08:23:21;;;;;;;;;;;;;;;;;;5074194;28;19912;-76
2021/09/20 08:25:46;;;;;;;;;;;;;;;;;;5090577;28;19916;-76
2021/09/20 08:28:12;;;;;;;;;;;;;;;;;;5074098;28;19920;-76
2021/09/20 08:30:37;;;;;;;;;;;;;;;;;;5077800;28;19955;-76
2021/09/20 08:33:03;;;;;;;;;;;;;;;;;;5061307;28;19916;-76
2021/09/20 08:35:28;;;;;;;;;;;;;;;;;;5094785;28;19916;-76
2021/09/20 08:37:53;;;;;;;;;;;;;;;;;;5077578;28;19978;-76
2021/09/20 08:40:19;;;;;;;;;;;;;;;;;;5056908;28;19916;-76
2021/09/20 08:42:44;;;;;;;;;;;;;;;;;;5069580;28;20394;-76
2021/09/20 08:45:11;;;;;;;;;;;;;;;;;;5074842;28;19916;-76
2021/09/20 08:47:39;;;;;;;;;;;;;;;;;;5057724;28;19962;-76
2021/09/20 08:50:04;;;;;;;;;;;;;;;;;;5092030;28;19916;-76
2021/09/20 08:52:30;;;;;;;;;;;;;;;;;;5077746;28;19919;-76
2021/09/20 08:54:55;;;;;;;;;;;;;;;;;;5084214;28;19918;-76
2021/09/20 08:57:21;;;;;;;;;;;;;;;;;;5078862;28;19920;-75
2021/09/20 08:59:46;;;;;;;;;;;;;;;;;;5056422;28;19966;-76
2021/09/20 09:02:15;;;;;;;;;;;;;;;;;;5057730;28;19973;-76
2021/09/20 09:04:41;;;;;;;;;;;;;;;;;;5092577;28;20388;-76
2021/09/20 09:07:11;;;;;;;;;;;;;;;;;;5063331;28;20321;-75
2021/09/20 09:09:40;;;;;;;;;;;;;;;;;;5057258;28;19916;-76
2021/09/20 09:12:19;;;;;;;;;;;;;;;;;;5057285;28;20271;-76
2021/09/20 09:14:46;;;;;;;;;;;;;;;;;;5057422;28;19912;-76
2021/09/20 09:17:31;;;;;;;;;;;;;;;;;;5057587;28;19923;-76
2021/09/20 09:19:58;;;;;;;;;;;;;;;;;;5040637;28;19920;-76
2021/09/20 09:22:24;;;;;;;;;;;;;;;;;;5073882;28;20019;-76
2021/09/20 09:24:53;;;;;;;;;;;;;;;;;;5039891;28;19955;-76
2021/09/20 09:27:20;;;;;;;;;;;;;;;;;;5076176;28;20348;-76
2021/09/20 09:29:46;;;;;;;;;;;;;;;;;;5075119;28;19919;-76
2021/09/20 09:32:11;;;;;;;;;;;;;;;;;;5094420;28;20309;-76
2021/09/20 09:34:38;;;;;;;;;;;;;;;;;;5073490;28;20011;-76
2021/09/20 09:37:11;;;;;;;;;;;;;;;;;;5096292;28;20003;-76
2021/09/20 09:39:36;;;;;;;;;;;;;;;;;;5079821;28;19912;-76
2021/09/20 09:42:01;;;;;;;;;;;;;;;;;;5090702;28;19920;-75
2021/09/20 09:44:33;;;;;;;;;;;;;;;;;;5076620;28;19912;-76
2021/09/20 09:46:59;;;;;;;;;;;;;;;;;;5072550;28;19933;-76
2021/09/20 09:49:25;;;;;;;;;;;;;;;;;;5073276;28;20027;-76
2021/09/20 09:52:00;;;;;;;;;;;;;;;;;;5040341;28;19915;-76
2021/09/20 09:54:32;;;;;;;;;;;;;;;;;;5069957;28;19913;-76
2021/09/20 09:57:17;;;;;;;;;;;;;;;;;;5075499;28;19994;-76
2021/09/20 09:59:43;;;;;;;;;;;;;;;;;;5099413;28;19928;-76
2021/09/20 10:02:24;;;;;;;;;;;;;;;;;;5059786;28;20331;-75
2021/09/20 10:04:54;;;;;;;;;;;;;;;;;;5073292;28;19913;-76
2021/09/20 10:07:26;;;;;;;;;;;;;;;;;;5072080;28;19954;-76
2021/09/20 10:09:52;;;;;;;;;;;;;;;;;;5072959;28;19988;-76
2021/09/20 10:12:17;;;;;;;;;;;;;;;;;;5076351;28;19912;-76
2021/09/20 10:14:43;;;;;;;;;;;;;;;;;;5093079;28;19916;-76
2021/09/20 10:17:11;;;;;;;;;;;;;;;;;;5072507;28;19916;-76
2021/09/20 10:19:37;;;;;;;;;;;;;;;;;;5059400;28;19945;-76
2021/09/20 10:22:02;;;;;;;;;;;;;;;;;;5075472;28;19993;-76
2021/09/20 10:24:27;;;;;;;;;;;;;;;;;;5092805;28;19966;-76
2021/09/20 10:26:53;;;;;;;;;;;;;;;;;;5072465;28;19937;-76
2021/09/20 10:29:18;;;;;;;;;;;;;;;;;;5073884;28;19931;-76
2021/09/20 10:31:46;;;;;;;;;;;;;;;;;;5075407;28;19998;-76
2021/09/20 10:34:18;;;;;;;;;;;;;;;;;;5075862;28;19912;-76
2021/09/20 10:36:46;;;;;;;;;;;;;;;;;;5091921;28;19916;-76
2021/09/20 10:39:11;;;;;;;;;;;;;;;;;;5092596;28;20007;-76
2021/09/20 10:41:37;;;;;;;;;;;;;;;;;;5075573;28;20015;-76
2021/09/20 10:44:06;;;;;;;;;;;;;;;;;;5090584;28;19916;-76
2021/09/20 10:46:35;;;;;;;;;;;;;;;;;;5074353;28;20006;-76
2021/09/20 10:49:02;;;;;;;;;;;;;;;;;;5092325;28;19994;-76
2021/09/20 10:51:28;;;;;;;;;;;;;;;;;;5075192;28;19961;-76
2021/09/20 10:54:05;;;;;;;;;;;;;;;;;;5077224;28;19965;-76
2021/09/20 10:56:34;;;;;;;;;;;;;;;;;;5088519;28;19923;-75
2021/09/20 10:58:59;;;;;;;;;;;;;;;;;;5071555;28;19934;-76
2021/09/20 11:01:24;;;;;;;;;;;;;;;;;;5085071;28;20297;-76
2021/09/20 11:03:50;;;;;;;;;;;;;;;;;;5071608;28;19970;-75
2021/09/20 11:06:22;;;;;;;;;;;;;;;;;;5074009;28;19992;-76
2021/09/20 11:08:52;;;;;;;;;;;;;;;;;;5061435;28;19955;-76
2021/09/20 11:11:37;;;;;;;;;;;;;;;;;;5055949;28;20365;-75
2021/09/20 11:14:03;;;;;;;;;;;;;;;;;;5054596;28;19962;-75
2021/09/20 11:16:46;;;;;;;;;;;;;;;;;;5071685;28;19916;-76
2021/09/20 11:19:24;;;;;;;;;;;;;;;;;;5069656;28;19923;-76
2021/09/20 11:22:14;;;;;;;;;;;;;;;;;;5090854;28;19920;-76
2021/09/20 11:24:42;;;;;;;;;;;;;;;;;;5069618;28;19920;-75
2021/09/20 11:27:26;;;;;;;;;;;;;;;;;;5058766;28;19927;-76
2021/09/20 11:29:52;;;;;;;;;;;;;;;;;;5090074;28;19916;-76
2021/09/20 11:32:18;;;;;;;;;;;;;;;;;;5083845;28;19919;-76
2021/09/20 11:34:48;;;;;;;;;;;;;;;;;;5067669;28;19916;-76
2021/09/20 11:37:14;;;;;;;;;;;;;;;;;;5054378;28;19982;-75
2021/09/20 11:40:06;;;;;;;;;;;;;;;;;;5067523;28;19927;-76
2021/09/20 11:42:37;;;;;;;;;;;;;;;;;;5090294;28;19915;-76
2021/09/20 11:45:02;;;;;;;;;;;;;;;;;;5092748;28;19916;-76
2021/09/20 11:47:28;;;;;;;;;;;;;;;;;;5090906;28;19912;-76
2021/09/20 11:50:04;;;;;;;;;;;;;;;;;;5058992;28;20003;-76
2021/09/20 11:52:30;;;;;;;;;;;;;;;;;;5089820;28;20378;-76
2021/09/20 11:54:56;;;;;;;;;;;;;;;;;;5051622;28;19916;-76
2021/09/20 11:57:23;;;;;;;;;;;;;;;;;;5074260;28;19916;-76
2021/09/20 11:59:55;;;;;;;;;;;;;;;;;;5086558;28;19931;-76
2021/09/20 12:02:39;;;;;;;;;;;;;;;;;;5054348;28;19962;-76
2021/09/20 12:05:05;;;;;;;;;;;;;;;;;;5053738;28;19917;-76
2021/09/20 12:07:32;;;;;;;;;;;;;;;;;;5085751;28;19952;-76
2021/09/20 12:09:58;;;;;;;;;;;;;;;;;;5070808;28;20021;-76
2021/09/20 12:12:35;;;;;;;;;;;;;;;;;;5054008;28;20381;-76
2021/09/20 12:15:01;;;;;;;;;;;;;;;;;;5089055;28;19919;-76
2021/09/20 12:17:43;;;;;;;;;;;;;;;;;;5073684;28;19912;-76
2021/09/20 12:20:08;;;;;;;;;;;;;;;;;;5057560;28;19912;-76
2021/09/20 12:22:38;;;;;;;;;;;;;;;;;;5070865;28;19930;-76
2021/09/20 12:25:22;;;;;;;;;;;;;;;;;;5037074;28;19930;-76
2021/09/20 12:27:47;;;;;;;;;;;;;;;;;;5090020;28;20005;-76
2021/09/20 12:30:13;;;;;;;;;;;;;;;;;;5074282;28;19974;-76
2021/09/20 12:32:38;;;;;;;;;;;;;;;;;;5052884;28;19928;-76
2021/09/20 12:35:05;;;;;;;;;;;;;;;;;;5053576;28;19918;-76
2021/09/20 12:37:30;;;;;;;;;;;;;;;;;;5069687;28;20031;-75
2021/09/20 12:39:55;;;;;;;;;;;;;;;;;;5070546;28;20011;-76
2021/09/20 12:42:21;;;;;;;;;;;;;;;;;;5072950;28;19932;-75
2021/09/20 12:44:48;;;;;;;;;;;;;;;;;;5073728;28;19919;-76
2021/09/20 12:47:22;;;;;;;;;;;;;;;;;;5073544;28;19916;-76
2021/09/20 12:49:58;;;;;;;;;;;;;;;;;;5090413;28;19916;-76
2021/09/20 12:52:27;;;;;;;;;;;;;;;;;;5065945;28;20024;-76
2021/09/20 12:54:53;;;;;;;;;;;;;;;;;;5084739;28;19920;-76
2021/09/20 12:57:22;;;;;;;;;;;;;;;;;;5090626;28;19921;-76
2021/09/20 12:59:58;;;;;;;;;;;;;;;;;;5072811;28;20409;-76
2021/09/20 13:02:23;;;;;;;;;;;;;;;;;;5073402;28;20428;-76
2021/09/20 13:04:54;;;;;;;;;;;;;;;;;;5073289;28;19923;-76
2021/09/20 13:07:27;;;;;;;;;;;;;;;;;;5053317;28;19912;-76
2021/09/20 13:10:13;;;;;;;;;;;;;;;;;;5053866;28;19923;-76
2021/09/20 13:12:39;;;;;;;;;;;;;;;;;;5070503;28;19913;-76
2021/09/20 13:15:13;;;;;;;;;;;;;;;;;;5053557;28;19920;-76
2021/09/20 13:17:39;;;;;;;;;;;;;;;;;;5073032;28;20005;-76
2021/09/20 13:20:05;;;;;;;;;;;;;;;;;;5049387;28;19917;-76
2021/09/20 13:22:33;;;;;;;;;;;;;;;;;;5073499;28;19921;-76
2021/09/20 13:25:00;;;;;;;;;;;;;;;;;;5073235;28;20508;-77
2021/09/20 13:27:25;;;;;;;;;;;;;;;;;;5056641;28;19917;-76
2021/09/20 13:29:50;;;;;;;;;;;;;;;;;;5074744;28;20389;-76
2021/09/20 13:32:16;;;;;;;;;;;;;;;;;;5065400;28;19959;-77
2021/09/20 13:34:42;;;;;;;;;;;;;;;;;;5076454;28;19919;-76
2021/09/20 13:37:07;;;;;;;;;;;;;;;;;;5059797;28;19912;-76
2021/09/20 13:39:33;;;;;;;;;;;;;;;;;;5040915;28;19920;-76
2021/09/20 13:41:58;;;;;;;;;;;;;;;;;;5056648;28;19913;-76
2021/09/20 13:44:24;;;;;;;;;;;;;;;;;;5056690;28;19927;-80
2021/09/20 13:46:49;;;;;;;;;;;;;;;;;;5076666;28;19950;-76
2021/09/20 13:49:14;;;;;;;;;;;;;;;;;;5076422;28;20373;-76
2021/09/20 13:51:40;;;;;;;;;;;;;;;;;;5076458;28;19915;-77
2021/09/20 13:54:05;;;;;;;;;;;;;;;;;;5076137;28;19912;-76
2021/09/20 13:56:31;;;;;;;;;;;;;;;;;;5093288;28;19912;-76
2021/09/20 13:58:56;;;;;;;;;;;;;;;;;;5076359;28;20278;-76
2021/09/20 14:01:24;;;;;;;;;;;;;;;;;;5076631;28;20127;-76
2021/09/20 14:03:53;;;;;;;;;;;;;;;;;;5093816;28;19962;-76
2021/09/20 14:06:19;;;;;;;;;;;;;;;;;;5055106;28;20412;-76
2021/09/20 14:08:44;;;;;;;;;;;;;;;;;;5072718;28;19912;-76
2021/09/20 14:11:12;;;;;;;;;;;;;;;;;;5073139;28;19912;-76
2021/09/20 14:13:37;;;;;;;;;;;;;;;;;;5068102;28;19973;-76
2021/09/20 14:16:03;;;;;;;;;;;;;;;;;;5072892;28;19916;-75
2021/09/20 14:18:28;;;;;;;;;;;;;;;;;;5075954;28;19916;-75
2021/09/20 14:20:53;;;;;;;;;;;;;;;;;;5076136;28;20384;-76
2021/09/20 14:23:19;;;;;;;;;;;;;;;;;;5075432;28;20385;-76
2021/09/20 14:25:44;;;;;;;;;;;;;;;;;;5075609;28;19999;-76
2021/09/20 14:28:10;;;;;;;;;;;;;;;;;;5071866;28;19963;-76
2021/09/20 14:30:36;;;;;;;;;;;;;;;;;;5061344;28;19912;-76
2021/09/20 14:33:02;;;;;;;;;;;;;;;;;;5074865;28;20042;-76
2021/09/20 14:35:27;;;;;;;;;;;;;;;;;;5055337;28;20010;-76
2021/09/20 14:37:52;;;;;;;;;;;;;;;;;;5055206;28;19965;-76
2021/09/20 14:40:22;;;;;;;;;;;;;;;;;;5055946;28;20378;-76
2021/09/20 14:42:47;;;;;;;;;;;;;;;;;;5055519;28;19916;-75
2021/09/20 14:45:13;;;;;;;;;;;;;;;;;;5072314;28;19924;-77
2021/09/20 14:47:39;;;;;;;;;;;;;;;;;;5071718;28;20390;-76
2021/09/20 14:50:05;;;;;;;;;;;;;;;;;;5072241;28;20439;-76
2021/09/20 14:52:31;;;;;;;;;;;;;;;;;;5055233;28;19919;-76
2021/09/20 14:54:57;;;;;;;;;;;;;;;;;;5060879;28;19916;-75
2021/09/20 14:57:22;;;;;;;;;;;;;;;;;;5054996;28;20284;-77
2021/09/20 14:59:47;;;;;;;;;;;;;;;;;;5072136;28;19948;-77
2021/09/20 15:02:13;;;;;;;;;;;;;;;;;;5069059;28;20718;-76
2021/09/20 15:04:39;;;;;;;;;;;;;;;;;;5054872;28;19916;-77
2021/09/20 15:07:04;;;;;;;;;;;;;;;;;;5038120;28;19916;-77
2021/09/20 15:09:30;;;;;;;;;;;;;;;;;;5058348;28;19969;-77
2021/09/20 15:11:55;;;;;;;;;;;;;;;;;;5091944;28;20358;-77
2021/09/20 15:14:20;;;;;;;;;;;;;;;;;;5074966;28;19913;-77
2021/09/20 15:16:46;;;;;;;;;;;;;;;;;;5075149;28;19912;-78
2021/09/20 15:19:11;;;;;;;;;;;;;;;;;;5075023;28;20289;-77
2021/09/20 15:21:37;;;;;;;;;;;;;;;;;;5074985;28;19912;-78
2021/09/20 15:24:02;;;;;;;;;;;;;;;;;;5058049;28;20305;-77
2021/09/20 15:26:27;;;;;;;;;;;;;;;;;;5074892;28;20483;-77
2021/09/20 15:28:53;;;;;;;;;;;;;;;;;;5074899;28;19920;-76
2021/09/20 15:31:18;;;;;;;;;;;;;;;;;;5052570;28;19920;-77
2021/09/20 15:33:43;;;;;;;;;;;;;;;;;;5080584;28;19931;-77
2021/09/20 15:36:08;;;;;;;;;;;;;;;;;;5048344;28;19927;-77
2021/09/20 15:38:34;;;;;;;;;;;;;;;;;;5070598;28;19916;-77
2021/09/20 15:40:59;;;;;;;;;;;;;;;;;;5071923;28;19952;-77
2021/09/20 15:43:25;;;;;;;;;;;;;;;;;;5076842;28;19916;-77
2021/09/20 15:45:52;;;;;;;;;;;;;;;;;;5054568;28;19970;-77
2021/09/20 15:48:17;;;;;;;;;;;;;;;;;;5054165;28;20418;-76
2021/09/20 15:50:43;;;;;;;;;;;;;;;;;;5070679;28;20015;-77
2021/09/20 15:53:08;;;;;;;;;;;;;;;;;;5089247;28;19919;-77
2021/09/20 15:55:34;;;;;;;;;;;;;;;;;;5068820;28;20015;-77
2021/09/20 15:57:59;;;;;;;;;;;;;;;;;;5073441;28;20386;-77
2021/09/20 16:00:26;;;;;;;;;;;;;;;;;;5070874;28;20449;-77
2021/09/20 16:02:52;;;;;;;;;;;;;;;;;;5053905;28;19919;-77
2021/09/20 16:05:17;;;;;;;;;;;;;;;;;;5082785;28;19915;-76
2021/09/20 16:07:43;;;;;;;;;;;;;;;;;;5053413;28;19927;-76
2021/09/20 16:10:09;;;;;;;;;;;;;;;;;;5053963;28;20717;-77
2021/09/20 16:12:34;;;;;;;;;;;;;;;;;;5053914;28;19974;-76
2021/09/20 16:15:00;;;;;;;;;;;;;;;;;;5087272;28;19916;-77
2021/09/20 16:17:25;;;;;;;;;;;;;;;;;;5054257;28;19916;-77
2021/09/20 16:19:51;;;;;;;;;;;;;;;;;;5064486;28;19916;-76
2021/09/20 16:22:16;;;;;;;;;;;;;;;;;;5068136;28;19951;-77
2021/09/20 16:24:41;;;;;;;;;;;;;;;;;;5057830;28;20382;-77
2021/09/20 16:27:07;;;;;;;;;;;;;;;;;;5066032;28;19920;-76
2021/09/20 16:29:32;;;;;;;;;;;;;;;;;;5069818;28;19966;-76
2021/09/20 16:31:58;;;;;;;;;;;;;;;;;;5084182;28;19916;-76
2021/09/20 16:34:23;;;;;;;;;;;;;;;;;;5072795;28;19920;-77
2021/09/20 16:36:48;;;;;;;;;;;;;;;;;;5072477;28;19924;-77
2021/09/20 16:39:14;;;;;;;;;;;;;;;;;;5067625;28;19920;-78
2021/09/20 16:41:39;;;;;;;;;;;;;;;;;;5055868;28;20426;-77